Haddam, CT

11:54 PM EDT on August 30, 2016 (GMT -0400)
| | Change Station
Active Advisory: Air Quality Alert

Elev -9999 ft 0.00 °N, 0.00 °E | Updated

Partly Cloudy
Partly Cloudy
68 °F
Feels Like 68 °F
N
3
Wind Variable Wind from SSW
Gusts mph

Today
High -- | Low -- °F
--% Chance of Precip.
Yesterday
High -- | Low -- °F
Precip. -- in
Pressure 30.07 in
Visibility 10.0 miles
Clouds Clear
Dew Point 67 °F
Humidity 95%
Rainfall --
Snow Depth Not available.
6:14 AM 7:25 PM
Waning Crescent, 2% visible
METAR KSNC 310335Z AUTO 00000KT 10SM CLR 21/18 A3007 RMK AO2
Pressure 30.07 in
Visibility 10.0 miles
Clouds Clear
Dew Point 67 °F
Humidity 95%
Rainfall --
Snow Depth Not available.
6:14 AM 7:25 PM
Waning Crescent, 2% visible
METAR KSNC 310335Z AUTO 00000KT 10SM CLR 21/18 A3007 RMK AO2

10-Day Weather Forecast

Almanac

Astronomy

Aug. 30, 2016 Rise Set
Actual Time
Civil Twilight
Nautical Twilight
Astronomical Twilight
Moon
Length of Visible Light
Length of Day
Tomorrow will be .
, % of the Moon is Illuminated

Today's Extremes

State Highs State Lows

Community

WunderPhotos

Upload Photos

1,936,021 photos uploaded!

WunderBlog® & News

Nearby

Air Quality

  Air Quality AQ Index Pollutant
Not available.

Snow Depth

Station Depth Elevation

Earthquake Activity

City Distance Mag. Time & Date
Minimum magnitude displayed is 2.5.

Coastal Water Temperatures

Place Temperature

Stations

Nearby Weather Stations

Station Location Temp. Windchill Dew Point Humidity Wind Precip. Elev Updated Type
                   

Watches & Warnings

Air Quality Alert
Issued: 3:50 PM EDT Aug. 30, 2016 – National Weather Service

... Air quality alert is in effect from 11 am Wednesday until 11 PM
Wednesday...

The Connecticut department of energy and
environmental protection has issued an air quality action day for
the following counties...

Fairfield... Middlesex and New Haven.

An air quality action day means that ozone within the region may
approach or exceed unhealthy standards. For additional information...
please visit the Connecticut department of environmental protection
web site at http://www.CT.Gov/deep/aqi




Maloit


350 PM EDT Tue Aug 30 2016

... Air quality alert is in effect from 11 am Wednesday until 11 PM
Wednesday...

The Connecticut department of energy and
environmental protection has issued an air quality action day for
the following counties...

Fairfield... Middlesex and New Haven.

An air quality action day means that ozone within the region may
approach or exceed unhealthy standards. For additional information...
please visit the Connecticut department of environmental protection
web site at http://www.CT.Gov/deep/aqi




Maloit